Time;durP1;ratioP1;P1;durP2;ratioP2;P2;SDS_P1;SDS_P2;PMS_P1;PMS_P2;Temp;Humidity;BMP_temperature;BMP_pressure;BME280_temperature;BME280_humidity;BME280_pressure;Samples;Min_cycle;Max_cycle;Signal;HPM_P1;HPM_P2
2022/05/24 00:01:52;;;;;;;11.20;4.53;;;;;;;-144.47;52.44;53249.38;4891969;29;20631;-69
2022/05/24 00:04:18;;;;;;;13.50;4.55;;;;;;;-144.47;53.25;53209.66;4892911;29;20039;-68
2022/05/24 00:06:43;;;;;;;14.50;3.20;;;;;;;-144.47;55.25;53213.63;4892699;29;20029;-71
2022/05/24 00:09:08;;;;;;;9.63;3.00;;;;;;;-144.47;56.71;53217.59;4892476;29;20036;-67
2022/05/24 00:11:34;;;;;;;14.90;3.35;;;;;;;-144.47;58.34;53219.56;4892547;29;20063;-70
2022/05/24 00:13:59;;;;;;;11.32;3.20;;;;;;;-144.47;58.95;53261.28;4892703;29;20684;-69
2022/05/24 00:16:24;;;;;;;10.13;2.72;;;;;;;-144.47;59.76;53225.53;4892269;29;20025;-70
2022/05/24 00:18:50;;;;;;;10.20;3.13;;;;;;;-144.47;60.01;53253.34;4892249;29;20452;-67
2022/05/24 00:21:15;;;;;;;6.32;2.70;;;;;;;-144.47;60.44;53253.34;4892710;29;20033;-68
2022/05/24 00:23:40;;;;;;;11.18;3.72;;;;;;;-144.47;60.90;53275.19;4892493;29;20940;-67
2022/05/24 00:26:08;;;;;;;6.95;2.65;;;;;;;-144.47;60.94;53267.25;4891316;29;20020;-68
2022/05/24 00:28:34;;;;;;;8.82;2.97;;;;;;;-144.47;60.96;53235.47;4892379;29;20033;-68
2022/05/24 00:31:00;;;;;;;11.70;3.38;;;;;;;-144.47;61.30;53277.19;4892352;29;20033;-68
2022/05/24 00:33:26;;;;;;;8.48;2.83;;;;;;;-144.47;61.79;53233.47;4892682;29;20372;-70
2022/05/24 00:35:53;;;;;;;14.07;5.20;;;;;;;-144.47;61.46;53221.56;4892320;29;20399;-69
2022/05/24 00:38:26;;;;;;;21.08;3.15;;;;;;;-144.47;61.03;53267.25;4892405;29;20112;-66
2022/05/24 00:41:02;;;;;;;16.20;3.20;;;;;;;-144.47;60.85;53247.38;4890373;28;20488;-67
2022/05/24 00:43:59;;;;;;;7.03;2.38;;;;;;;-144.47;61.13;53241.44;4875697;29;20429;-69
2022/05/24 00:46:35;;;;;;;9.23;2.80;;;;;;;-144.47;60.92;53287.13;4906382;28;20041;-68
2022/05/24 00:49:02;;;;;;;9.55;2.42;;;;;;;-144.47;60.94;53271.22;4891598;29;20451;-70
2022/05/24 00:51:34;;;;;;;8.85;2.47;;;;;;;-144.47;60.95;53265.25;4891918;29;20021;-68
2022/05/24 00:53:59;;;;;;;7.65;2.33;;;;;;;-144.47;61.29;53277.19;4892584;29;20436;-66
2022/05/24 00:56:35;;;;;;;8.68;2.65;;;;;;;-144.47;61.35;53251.34;4993314;23;20107;-66
2022/05/24 00:59:04;;;;;;;10.77;2.47;;;;;;;-144.47;61.31;53253.34;5030065;28;20017;-66
2022/05/24 01:01:41;;;;;;;9.52;2.33;;;;;;;-144.47;61.03;53281.16;5027401;28;20033;-66
2022/05/24 01:04:10;;;;;;;7.97;3.03;;;;;;;-144.47;61.03;53249.38;5031091;28;20484;-66
2022/05/24 01:06:36;;;;;;;;;;;;;;;-144.47;60.95;53287.13;5030977;28;20101;-67
2022/05/24 01:09:06;;;;;;;4.63;1.75;;;;;;;-144.47;61.04;53221.56;5030577;28;20000;-66
2022/05/24 01:11:36;;;;;;;8.65;2.00;;;;;;;-144.47;61.33;53293.06;5030553;28;20108;-67
2022/05/24 01:14:03;;;;;;;9.30;2.15;;;;;;;-144.47;61.66;53269.22;5030598;28;20030;-65
2022/05/24 01:16:29;;;;;;;8.98;3.05;;;;;;;-144.47;61.57;53273.22;5030881;28;20045;-65
2022/05/24 01:18:54;;;;;;;7.15;2.10;;;;;;;-144.47;61.66;53251.34;5026961;28;20033;-65
2022/05/24 01:21:20;;;;;;;6.70;2.65;;;;;;;-144.47;62.02;53251.34;5030109;28;20029;-64
2022/05/24 01:24:07;;;;;;;7.80;2.60;;;;;;;-144.47;61.97;53259.31;5030761;28;20028;-65
2022/05/24 01:26:54;;;;;;;5.75;1.92;;;;;;;-144.47;62.02;53275.19;5029900;28;20075;-64
2022/05/24 01:29:21;;;;;;;8.00;2.10;;;;;;;-144.47;61.76;53277.19;5030143;28;20527;-66
2022/05/24 01:37:19;;;;;;;8.50;2.10;;;;;;;-144.47;62.31;53269.22;5030229;28;20392;-65
2022/05/24 01:39:47;;;;;;;9.98;2.35;;;;;;;-144.47;61.99;53247.38;5029093;28;20029;-65
2022/05/24 01:42:13;;;;;;;;;;;;;;;-144.47;62.28;53303.00;5030581;28;20033;-65
2022/05/24 01:45:14;;;;;;;10.20;2.28;;;;;;;-144.47;62.32;53249.38;5029030;28;19991;-65
2022/05/24 01:47:42;;;;;;;9.75;2.17;;;;;;;-144.47;62.26;53287.13;5022850;28;20087;-65
2022/05/24 01:50:11;;;;;;;7.90;3.28;;;;;;;-144.47;62.47;53265.25;5029954;28;20104;-64
2022/05/24 01:52:47;;;;;;;10.60;2.45;;;;;;;-144.47;62.24;53267.25;5030174;28;20086;-63
2022/05/24 01:55:19;;;;;;;6.07;2.45;;;;;;;-144.47;62.37;53287.13;5030537;28;20224;-64
2022/05/24 01:57:49;;;;;;;9.73;2.22;;;;;;;-144.47;62.16;53247.38;5024684;28;20083;-64
2022/05/24 02:00:15;;;;;;;8.43;2.22;;;;;;;-144.47;62.41;53291.09;5028431;28;20155;-67
2022/05/24 02:02:44;;;;;;;8.65;2.17;;;;;;;-144.47;62.24;53289.09;5029688;28;20029;-65
2022/05/24 02:05:11;;;;;;;7.68;2.15;;;;;;;-144.47;62.21;53263.28;5031132;28;20068;-65
2022/05/24 02:07:37;;;;;;;8.60;2.42;;;;;;;-144.47;62.26;53275.19;5031352;28;20544;-66
2022/05/24 02:10:03;;;;;;;7.22;2.38;;;;;;;-144.47;62.05;53285.13;5031058;28;20109;-64
2022/05/24 02:12:47;;;;;;;7.85;2.15;;;;;;;-144.47;61.99;53243.41;5030606;28;20025;-66
2022/05/24 02:15:18;;;;;;;8.68;2.10;;;;;;;-144.47;61.83;53279.16;5030682;28;20503;-63
2022/05/24 02:18:04;;;;;;;8.48;2.10;;;;;;;-144.47;61.89;53271.22;5029760;28;20449;-66
2022/05/24 02:20:36;;;;;;;5.15;2.00;;;;;;;-144.47;61.87;53287.13;5028988;28;20124;-65
2022/05/24 02:23:03;;;;;;;15.65;3.03;;;;;;;-144.47;61.94;53263.28;5029911;28;20033;-66
2022/05/24 02:25:45;;;;;;;6.50;2.00;;;;;;;-144.47;61.98;53277.19;5029295;28;20524;-64
2022/05/24 02:28:13;;;;;;;6.55;1.85;;;;;;;-144.47;61.76;53265.25;5029672;28;20032;-63
2022/05/24 02:30:50;;;;;;;4.72;1.88;;;;;;;-144.47;61.89;53312.94;5029034;28;20033;-64
2022/05/24 02:33:15;;;;;;;5.55;2.10;;;;;;;-144.47;61.62;53249.38;5029425;28;20022;-66
2022/05/24 02:35:41;;;;;;;9.57;2.45;;;;;;;-144.47;61.89;53285.13;5029418;28;20017;-64
2022/05/24 02:38:06;;;;;;;6.30;2.47;;;;;;;-144.47;61.78;53259.31;5029919;28;20117;-64
2022/05/24 02:43:16;;;;;;;7.45;1.83;;;;;;;-144.47;61.49;53263.28;5028508;28;20555;-65
2022/05/24 02:45:41;;;;;;;3.65;1.80;;;;;;;-144.47;60.72;53279.16;5028573;28;20030;-64
2022/05/24 02:48:07;;;;;;;7.45;1.80;;;;;;;-144.47;60.72;53271.22;5029434;28;20026;-65
2022/05/24 02:50:32;;;;;;;8.95;2.35;;;;;;;-144.47;60.59;53253.34;5027569;28;20729;-64
2022/05/24 02:52:58;;;;;;;6.15;2.00;;;;;;;-144.47;59.96;53267.25;5029583;28;20507;-65
2022/05/24 02:55:23;;;;;;;7.65;1.98;;;;;;;-144.47;59.65;53281.16;5029187;28;20029;-64
2022/05/24 02:57:49;;;;;;;6.50;1.80;;;;;;;-144.47;59.95;53259.31;5029271;28;20034;-66
2022/05/24 03:00:20;;;;;;;4.85;2.00;;;;;;;-144.47;60.17;53281.16;5029257;28;20022;-65
2022/05/24 03:02:46;;;;;;;7.97;2.33;;;;;;;-144.47;60.32;53257.31;5030259;28;20185;-63
2022/05/24 03:05:13;;;;;;;3.42;1.80;;;;;;;-144.47;60.25;53273.22;5029433;28;20025;-65
2022/05/24 03:10:25;;;;;;;5.60;1.85;;;;;;;-144.47;60.74;53261.28;5030355;28;20036;-64
2022/05/24 03:15:36;;;;;;;6.38;2.13;;;;;;;-144.47;60.82;53269.22;5029562;28;20032;-65
2022/05/24 03:18:01;;;;;;;6.00;2.08;;;;;;;-144.47;60.94;53301.03;5025932;28;20109;-65
2022/05/24 03:20:27;;;;;;;5.13;2.28;;;;;;;-144.47;60.04;53263.28;5028451;28;20116;-65
2022/05/24 03:22:53;;;;;;;13.90;2.30;;;;;;;-144.47;60.18;53297.03;5028674;28;20465;-66
2022/05/24 03:25:18;;;;;;;5.57;2.33;;;;;;;-144.47;60.02;53259.31;5028664;28;20025;-69
2022/05/24 03:27:46;;;;;;;6.63;2.10;;;;;;;-144.47;59.87;53281.16;5028742;28;20036;-65
2022/05/24 03:30:12;;;;;;;10.75;3.00;;;;;;;-144.47;59.05;53277.19;5028980;28;20105;-64
2022/05/24 03:32:38;;;;;;;5.50;2.53;;;;;;;-144.47;58.15;53289.09;5029757;28;20025;-64
2022/05/24 03:35:08;;;;;;;4.75;2.25;;;;;;;-144.47;57.89;53293.06;5032511;28;20029;-66
2022/05/24 03:37:33;;;;;;;4.78;2.10;;;;;;;-144.47;57.35;53221.56;5032688;28;20017;-66
2022/05/24 03:39:59;;;;;;;3.95;2.20;;;;;;;-144.47;57.39;53251.34;5031950;28;20112;-65
2022/05/24 03:42:24;;;;;;;5.30;2.45;;;;;;;-144.47;57.33;53301.03;5031083;28;20029;-64
2022/05/24 03:44:49;;;;;;;6.38;2.75;;;;;;;-144.47;57.11;53273.22;5030749;28;20091;-63
2022/05/24 03:47:15;;;;;;;6.40;2.00;;;;;;;-144.47;56.96;53257.31;5032203;28;20025;-67
2022/05/24 03:49:40;;;;;;;4.57;2.42;;;;;;;-144.47;57.11;53279.16;5030546;28;20100;-63
2022/05/24 03:52:06;;;;;;;7.28;2.67;;;;;;;-144.47;57.06;53239.44;5031830;28;20026;-65
2022/05/24 03:54:31;;;;;;;5.25;2.60;;;;;;;-144.47;57.19;53281.16;5032142;28;20032;-64
2022/05/24 03:59:41;;;;;;;5.80;2.60;;;;;;;-144.47;57.63;53277.19;5025800;28;20024;-66
2022/05/24 04:02:06;;;;;;;6.97;3.20;;;;;;;-144.47;57.78;53253.34;5032001;28;20029;-67
2022/05/24 04:04:32;;;;;;;5.38;2.85;;;;;;;-144.47;57.91;53267.25;5031394;28;20068;-63
2022/05/24 04:06:57;;;;;;;7.97;3.20;;;;;;;-144.47;58.00;53275.19;5031675;28;20021;-65
2022/05/24 04:09:22;;;;;;;7.05;3.22;;;;;;;-144.47;58.31;53237.44;5031084;28;20060;-65
2022/05/24 04:11:48;;;;;;;7.20;3.67;;;;;;;-144.47;58.50;53265.25;5032117;28;20025;-66
2022/05/24 04:14:13;;;;;;;5.60;3.47;;;;;;;-144.47;58.54;53267.25;5032133;28;20028;-65
2022/05/24 04:16:38;;;;;;;7.47;3.60;;;;;;;-144.47;58.93;53273.22;5031628;28;20444;-65
2022/05/24 04:19:04;;;;;;;6.90;3.42;;;;;;;-144.47;58.94;53287.13;5030834;28;20350;-66
2022/05/24 04:21:30;;;;;;;8.40;3.92;;;;;;;-144.47;58.98;53295.06;5031688;28;20028;-66
2022/05/24 04:23:56;;;;;;;7.05;3.63;;;;;;;-144.47;59.01;53259.31;5031747;28;20017;-67
2022/05/24 04:26:21;;;;;;;8.15;4.95;;;;;;;-144.47;58.83;53273.22;5031394;28;20029;-64
2022/05/24 04:28:46;;;;;;;7.65;4.25;;;;;;;-144.47;58.90;53273.22;5031233;28;20067;-66
2022/05/24 04:31:11;;;;;;;5.95;3.83;;;;;;;-144.47;58.95;53303.00;5031630;28;20021;-66
2022/05/24 04:33:37;;;;;;;10.90;5.03;;;;;;;-144.47;58.83;53291.09;5031405;28;20108;-67
2022/05/24 04:36:02;;;;;;;8.68;4.70;;;;;;;-144.47;58.41;53322.88;5031411;28;20025;-65
2022/05/24 04:38:27;;;;;;;11.88;5.13;;;;;;;-144.47;58.67;53271.22;5031431;28;20029;-63
2022/05/24 04:43:37;;;;;;;9.98;5.50;;;;;;;-144.47;58.31;53293.06;5028527;28;20029;-64
2022/05/24 04:46:03;;;;;;;9.98;5.45;;;;;;;-144.47;58.59;53285.13;5031191;28;20033;-64
2022/05/24 04:48:28;;;;;;;11.15;5.50;;;;;;;-144.47;58.73;53265.25;5030855;28;20033;-66
2022/05/24 04:50:55;;;;;;;9.75;5.43;;;;;;;-144.47;58.21;53291.09;5030937;28;20582;-65
2022/05/24 04:53:21;;;;;;;11.73;5.68;;;;;;;-144.47;58.19;53263.28;5031029;28;20116;-66
2022/05/24 04:55:50;;;;;;;13.60;5.30;;;;;;;-144.47;58.68;53269.22;5030542;28;20036;-64
2022/05/24 04:58:17;;;;;;;8.45;5.05;;;;;;;-144.47;58.85;53285.13;5030324;28;20029;-64
2022/05/24 05:00:43;;;;;;;10.70;5.82;;;;;;;-144.47;59.22;53245.41;5030560;28;20025;-65
2022/05/24 05:03:10;;;;;;;12.93;5.45;;;;;;;-144.47;59.07;53297.03;5030101;28;20087;-64
2022/05/24 05:05:36;;;;;;;13.10;5.13;;;;;;;-144.47;58.81;53271.22;5030008;28;20113;-66
2022/05/24 05:08:02;;;;;;;10.90;5.20;;;;;;;-144.47;58.57;53265.25;5030555;28;20074;-65
2022/05/24 05:10:27;;;;;;;14.65;5.90;;;;;;;-144.47;57.92;53269.22;5030085;28;20032;-66
2022/05/24 05:12:52;;;;;;;10.93;4.97;;;;;;;-144.47;58.33;53273.22;5029946;28;20030;-64
2022/05/24 05:15:18;;;;;;;10.93;5.93;;;;;;;-144.47;58.52;53277.19;5030387;28;20681;-66
2022/05/24 05:17:43;;;;;;;9.18;5.63;;;;;;;-144.47;58.91;53314.91;5027249;28;20033;-64
2022/05/24 05:20:09;;;;;;;8.70;5.72;;;;;;;-144.47;59.25;53303.00;5040621;28;20022;-66
2022/05/24 05:22:34;;;;;;;10.68;5.65;;;;;;;-144.47;59.30;53269.22;5028434;28;20029;-65
2022/05/24 05:25:00;;;;;;;11.40;6.07;;;;;;;-144.47;59.36;53267.25;5027791;28;20036;-64
2022/05/24 05:27:25;;;;;;;10.80;6.93;;;;;;;-144.47;59.42;53322.88;5029636;28;20121;-65
2022/05/24 05:32:35;;;;;;;13.68;6.63;;;;;;;-144.47;58.51;53269.22;5028022;28;20103;-66
2022/05/24 05:35:01;;;;;;;13.75;7.20;;;;;;;-144.47;58.16;53277.19;5029923;28;20029;-66
2022/05/24 05:37:29;;;;;;;11.43;6.25;;;;;;;-144.47;57.38;53259.31;5028914;28;20033;-64
2022/05/24 05:39:55;;;;;;;11.38;6.78;;;;;;;-144.47;56.89;53277.19;5029870;28;20071;-68
2022/05/24 05:42:20;;;;;;;10.95;6.80;;;;;;;-144.47;56.81;53287.13;5030109;28;20029;-65
2022/05/24 05:44:49;;;;;;;10.35;6.72;;;;;;;-144.47;56.37;53289.09;5026458;28;20056;-67
2022/05/24 05:47:15;;;;;;;12.40;6.90;;;;;;;-144.47;56.40;53303.00;5028328;28;20021;-65
2022/05/24 05:49:41;;;;;;;11.98;6.93;;;;;;;-144.47;56.43;53299.03;5029163;28;20104;-67
2022/05/24 05:52:07;;;;;;;10.90;6.70;;;;;;;-144.47;56.92;53269.22;5029748;28;20117;-64
2022/05/24 05:54:33;;;;;;;11.43;6.72;;;;;;;-144.47;56.67;53235.47;5030143;28;20036;-63
2022/05/24 05:56:59;;;;;;;18.70;7.18;;;;;;;-144.47;56.68;53269.22;5023318;28;20108;-65
2022/05/24 05:59:25;;;;;;;12.60;7.18;;;;;;;-144.47;56.69;53265.25;5029041;28;20226;-63
2022/05/24 06:01:51;;;;;;;11.80;6.57;;;;;;;-144.47;56.51;53277.19;5027664;28;20131;-65
2022/05/24 06:04:16;;;;;;;11.73;7.40;;;;;;;-144.47;56.39;53295.06;5025012;28;20465;-65
2022/05/24 06:06:45;;;;;;;11.25;7.43;;;;;;;-144.47;56.47;53281.16;5026875;28;20077;-65
2022/05/24 06:09:12;;;;;;;10.75;6.65;;;;;;;-144.47;56.58;53283.13;5029450;28;20392;-64
2022/05/24 06:11:37;;;;;;;13.18;7.25;;;;;;;-144.47;56.97;53259.31;5027626;28;20091;-67
2022/05/24 06:14:12;;;;;;;11.43;6.75;;;;;;;-144.47;56.70;53271.22;5030304;28;20029;-69
2022/05/24 06:16:38;;;;;;;10.52;6.50;;;;;;;-144.47;55.76;53273.22;5016164;28;20631;-66
2022/05/24 06:19:04;;;;;;;11.45;7.28;;;;;;;-144.47;55.51;53285.13;5025017;28;20049;-65
2022/05/24 06:21:33;;;;;;;13.23;7.50;;;;;;;-144.47;55.87;53287.13;5016408;28;20025;-64
2022/05/24 06:24:03;;;;;;;26.80;6.53;;;;;;;-144.47;55.86;53269.22;5029338;28;20022;-66
2022/05/24 06:26:29;;;;;;;12.27;7.35;;;;;;;-144.47;56.17;53245.41;5026390;28;20033;-67
2022/05/24 06:28:56;;;;;;;10.77;7.15;;;;;;;-144.47;56.13;53259.31;5017173;28;20161;-65
2022/05/24 06:31:21;;;;;;;11.98;7.15;;;;;;;-144.47;56.28;53285.13;5011008;28;20021;-64
2022/05/24 06:33:48;;;;;;;13.93;7.45;;;;;;;-144.47;55.54;53287.13;5013931;28;20033;-67
2022/05/24 06:36:13;;;;;;;12.20;7.07;;;;;;;-144.47;55.15;53261.28;5018716;28;20481;-68
2022/05/24 06:38:38;;;;;;;12.25;6.72;;;;;;;-144.47;55.21;53277.19;5028002;28;20083;-67
2022/05/24 06:41:04;;;;;;;11.30;6.88;;;;;;;-144.47;55.10;53261.28;5015519;28;20026;-64
2022/05/24 06:43:30;;;;;;;11.45;7.03;;;;;;;-144.47;54.55;53271.22;5019598;28;20028;-67
2022/05/24 06:45:55;;;;;;;11.20;7.63;;;;;;;-144.47;54.69;53297.03;5013112;28;20393;-67
2022/05/24 06:48:21;;;;;;;12.02;6.47;;;;;;;-144.47;54.68;53261.28;5018190;28;20612;-67
2022/05/24 06:50:46;;;;;;;13.20;6.82;;;;;;;-144.47;54.00;53253.34;5023310;28;20032;-65
2022/05/24 06:53:11;;;;;;;11.73;6.43;;;;;;;-144.47;53.90;53259.31;5029925;28;20029;-67
2022/05/24 06:58:06;;;;;;;14.45;6.80;;;;;;;-144.47;53.23;53265.25;5026471;28;20046;-69
2022/05/24 07:03:16;;;;;;;8.77;5.60;;;;;;;-144.47;51.65;53277.19;5028005;28;20056;-69
2022/05/24 07:05:43;;;;;;;10.38;5.35;;;;;;;-144.47;51.15;53269.22;5027387;28;20053;-69
2022/05/24 07:08:10;;;;;;;9.48;5.57;;;;;;;-144.47;51.05;53237.44;5031619;28;20029;-68
2022/05/24 07:10:37;;;;;;;7.10;4.53;;;;;;;-144.47;49.79;53185.81;5031804;28;20028;-68
2022/05/24 07:13:09;;;;;;;10.45;4.63;;;;;;;-144.47;49.85;53259.31;5013397;28;20411;-67
2022/05/24 07:15:35;;;;;;;9.30;4.50;;;;;;;-144.47;49.65;53249.38;5030421;28;20029;-68
2022/05/24 07:18:01;;;;;;;7.80;4.18;;;;;;;-144.47;49.57;53259.31;5027887;28;20076;-67
2022/05/24 07:20:27;;;;;;;13.05;4.20;;;;;;;-144.47;49.31;53253.34;5029849;28;20075;-67
2022/05/24 07:22:54;;;;;;;6.47;3.40;;;;;;;-144.47;48.97;53287.13;5026262;28;20389;-69
2022/05/24 07:25:21;;;;;;;6.72;3.70;;;;;;;-144.47;48.89;53239.44;5030488;28;20025;-69
2022/05/24 07:27:46;;;;;;;4.70;2.85;;;;;;;-144.47;48.24;53225.53;5030868;28;20044;-70
2022/05/24 07:30:12;;;;;;;6.20;3.15;;;;;;;-144.47;48.89;53257.31;5029618;28;20025;-69
2022/05/24 07:32:37;;;;;;;6.10;3.35;;;;;;;-144.47;48.93;53217.59;5022619;28;20052;-67
2022/05/24 07:35:04;;;;;;;7.32;3.53;;;;;;;-144.47;48.80;53209.66;5031321;28;20040;-68
2022/05/24 07:37:29;;;;;;;10.45;4.45;;;;;;;-144.47;49.15;53243.41;5030609;28;20028;-68
2022/05/24 07:48:07;;;;;;;9.20;3.47;;;;;;;-144.47;49.78;53249.38;5016525;28;20079;-67
2022/05/24 07:50:32;;;;;;;7.60;4.18;;;;;;;-144.47;49.11;53213.63;5012654;28;20025;-69
2022/05/24 07:52:57;;;;;;;6.82;3.10;;;;;;;-144.47;48.78;53213.63;5031004;28;20056;-68
2022/05/24 07:55:25;;;;;;;5.70;3.13;;;;;;;-144.47;48.36;53261.28;5029417;28;20134;-69
2022/05/24 07:57:51;;;;;;;6.15;3.10;;;;;;;-144.47;48.18;53257.31;5029907;28;20179;-68
2022/05/24 08:00:16;;;;;;;4.70;2.90;;;;;;;-144.47;48.11;53247.38;5031439;28;20498;-66
2022/05/24 08:02:42;;;;;;;6.82;2.35;;;;;;;-144.47;48.50;53219.56;5031046;28;20040;-69
2022/05/24 08:05:09;;;;;;;8.32;2.92;;;;;;;-144.47;48.18;53265.25;5030894;28;20032;-66
2022/05/24 08:07:34;;;;;;;6.03;3.03;;;;;;;-144.47;48.10;53243.41;5030578;28;20043;-66
2022/05/24 08:09:59;;;;;;;11.45;3.33;;;;;;;-144.47;48.39;53265.25;5030816;28;20062;-65
2022/05/24 08:12:24;;;;;;;4.72;3.20;;;;;;;-144.47;49.03;53205.66;5030277;28;20168;-66
2022/05/24 08:14:50;;;;;;;5.03;2.50;;;;;;;-144.47;48.96;53267.25;5012815;28;20116;-67
2022/05/24 08:17:15;;;;;;;5.13;2.75;;;;;;;-144.47;48.29;53249.38;5012194;28;20057;-69
2022/05/24 08:19:41;;;;;;;7.95;2.33;;;;;;;-144.47;47.84;53229.50;5029351;28;20409;-69
2022/05/24 08:22:06;;;;;;;7.35;2.40;;;;;;;-144.47;47.22;53265.25;5012508;28;20116;-65
2022/05/24 08:24:33;;;;;;;6.53;3.22;;;;;;;-144.47;47.66;53277.19;5030597;28;20104;-69
2022/05/24 08:26:58;;;;;;;4.65;2.70;;;;;;;-144.47;47.28;53227.53;5030195;28;20021;-68
2022/05/24 08:29:24;;;;;;;4.47;2.47;;;;;;;-144.47;46.00;53217.59;5029816;28;20052;-66
2022/05/24 08:31:49;;;;;;;6.82;3.08;;;;;;;-144.47;46.63;53223.56;5030703;28;20116;-69
2022/05/24 08:34:15;;;;;;;6.88;3.03;;;;;;;-144.47;47.03;53241.44;5029916;28;20049;-68
2022/05/24 08:36:40;;;;;;;7.85;3.50;;;;;;;-144.47;46.55;53251.34;5030015;28;20018;-68
2022/05/24 08:39:06;;;;;;;11.63;3.05;;;;;;;-144.47;46.22;53227.53;5030245;28;20021;-69
2022/05/24 08:42:04;;;;;;;4.45;2.72;;;;;;;-144.47;46.31;53251.34;5010916;28;20048;-68
2022/05/24 08:50:11;;;;;;;7.32;3.45;;;;;;;-144.47;46.32;53245.41;5029579;28;20131;-69
2022/05/24 08:52:47;;;;;;;6.45;3.40;;;;;;;-144.47;46.44;53195.75;5029537;28;20025;-69
2022/05/24 08:55:14;;;;;;;7.50;3.25;;;;;;;-144.47;46.56;53257.31;5011609;28;20101;-69
2022/05/24 08:57:40;;;;;;;5.80;2.90;;;;;;;-144.47;46.82;53215.59;5030201;28;20515;-71
2022/05/24 09:00:13;;;;;;;6.80;3.13;;;;;;;-144.47;46.25;53213.63;5029132;28;20509;-68
2022/05/24 09:02:44;;;;;;;4.82;2.70;;;;;;;-144.47;46.00;53207.66;5028659;28;20119;-69
2022/05/24 09:05:18;;;;;;;4.18;2.33;;;;;;;-144.47;45.85;53273.22;5030035;28;20083;-68
2022/05/24 09:07:59;;;;;;;9.40;2.60;;;;;;;-144.47;46.05;53209.66;5017537;28;20026;-68
2022/05/24 09:10:34;;;;;;;5.30;2.30;;;;;;;-144.47;45.86;53227.53;5029316;28;20037;-69
2022/05/24 09:13:25;;;;;;;6.07;3.00;;;;;;;-144.47;45.72;53229.50;5029342;28;20026;-70
2022/05/24 09:15:55;;;;;;;4.88;2.33;;;;;;;-144.47;46.33;53227.53;5016362;28;20558;-68
2022/05/24 09:18:34;;;;;;;7.28;2.95;;;;;;;-144.47;45.47;53245.41;5024746;28;20056;-68
2022/05/24 09:21:00;;;;;;;5.72;2.72;;;;;;;-144.47;45.68;53227.53;5014907;28;20075;-68
2022/05/24 09:23:34;;;;;;;9.93;2.58;;;;;;;-144.47;45.78;53223.56;5030094;28;20112;-69
2022/05/24 09:26:02;;;;;;;5.20;2.60;;;;;;;-144.47;46.29;53217.59;5031758;28;20067;-67
2022/05/24 09:28:48;;;;;;;7.40;2.60;;;;;;;-144.47;46.47;53229.50;5030909;28;20104;-69
2022/05/24 09:31:23;;;;;;;3.42;2.05;;;;;;;-144.47;46.27;53235.47;5019434;28;20461;-67
2022/05/24 09:33:55;;;;;;;4.00;2.15;;;;;;;-144.47;46.30;53247.38;5030749;28;20060;-65
2022/05/24 09:36:36;;;;;;;4.53;2.13;;;;;;;-144.47;46.18;53211.63;5031392;28;20111;-68
2022/05/24 09:39:21;;;;;;;5.35;2.00;;;;;;;-144.47;46.24;53231.50;5036907;28;20029;-65
2022/05/24 09:42:03;;;;;;;5.78;2.00;;;;;;;-144.47;45.99;53189.78;5020929;28;20080;-67
2022/05/24 09:44:44;;;;;;;3.50;1.95;;;;;;;-144.47;45.78;53223.56;5026909;28;20025;-68
2022/05/24 09:47:23;;;;;;;4.82;1.98;;;;;;;-144.47;45.41;53211.63;5032666;28;20174;-69
2022/05/24 09:49:49;;;;;;;5.25;2.55;;;;;;;-144.47;45.50;53221.56;5018961;28;20048;-70
2022/05/24 09:52:16;;;;;;;3.17;2.03;;;;;;;-144.47;45.58;53241.44;5031514;28;20437;-65
2022/05/24 09:54:56;;;;;;;3.83;2.28;;;;;;;-144.47;45.51;53233.47;5013669;28;20515;-69
2022/05/24 09:57:25;;;;;;;7.05;2.25;;;;;;;-144.47;45.50;53187.78;5029251;28;20089;-69
2022/05/24 10:00:19;;;;;;;4.25;2.33;;;;;;;-144.47;44.96;53201.69;5006075;28;20022;-67
2022/05/24 10:02:46;;;;;;;3.97;2.17;;;;;;;-144.47;44.69;53215.59;5016231;28;20021;-67
2022/05/24 10:05:23;;;;;;;5.18;2.28;;;;;;;-144.47;44.29;53225.53;5031212;28;20095;-67
2022/05/24 10:08:11;;;;;;;9.52;2.10;;;;;;;-144.47;44.43;53207.66;5029750;28;20132;-71
2022/05/24 10:10:40;;;;;;;6.00;2.17;;;;;;;-144.47;44.60;53205.66;5028478;28;20116;-69
2022/05/24 10:13:46;;;;;;;4.25;2.05;;;;;;;-144.47;44.92;53199.72;5029158;28;20037;-67
2022/05/24 10:16:43;;;;;;;6.65;2.40;;;;;;;-144.47;44.65;53201.69;5020833;28;20125;-68
2022/05/24 10:19:37;;;;;;;5.63;2.08;;;;;;;-144.47;44.76;53205.66;5030181;28;20154;-67
2022/05/24 10:22:18;;;;;;;4.20;2.00;;;;;;;-144.47;44.51;53223.56;5011727;28;20060;-70
2022/05/24 10:24:58;;;;;;;4.32;2.17;;;;;;;-144.47;44.53;53185.81;5027763;28;20037;-68
2022/05/24 10:27:49;;;;;;;4.63;1.77;;;;;;;-144.47;44.91;53235.47;5009546;28;20063;-67
2022/05/24 10:30:21;;;;;;;6.55;2.78;;;;;;;-144.47;44.35;53207.66;5025901;28;20025;-68
2022/05/24 10:39:40;;;;;;;5.15;2.00;;;;;;;-144.47;43.62;53211.63;5027558;28;20078;-67
2022/05/24 10:42:24;;;;;;;4.90;2.03;;;;;;;-144.47;43.33;53221.56;5019964;28;20149;-66
2022/05/24 10:45:13;;;;;;;5.93;1.58;;;;;;;-144.47;41.83;53199.72;5033260;28;20029;-68
2022/05/24 10:47:45;;;;;;;5.18;1.55;;;;;;;-144.47;41.67;53171.91;5033766;28;20081;-65
2022/05/24 10:50:20;;;;;;;5.53;1.55;;;;;;;-144.47;42.32;53177.88;5034886;28;20071;-68
2022/05/24 10:53:04;;;;;;;3.92;1.50;;;;;;;-144.47;41.99;53191.78;5034532;28;20087;-67
2022/05/24 10:55:38;;;;;;;6.40;1.60;;;;;;;-144.47;41.80;53179.84;5034247;28;20396;-69
2022/05/24 10:58:09;;;;;;;4.43;1.30;;;;;;;-144.47;41.83;53158.00;5034746;28;20112;-67
2022/05/24 11:00:43;;;;;;;7.57;1.98;;;;;;;-144.47;43.59;53195.75;5033465;28;20504;-66
2022/05/24 11:03:17;;;;;;;9.88;2.33;;;;;;;-144.47;44.33;53183.81;5033476;28;20396;-66
2022/05/24 11:05:42;;;;;;;7.40;2.42;;;;;;;-144.47;44.62;53221.56;5033650;28;20045;-68
2022/05/24 11:08:32;;;;;;;8.07;2.63;;;;;;;-144.47;45.02;53203.69;5034335;28;20025;-67
2022/05/24 11:11:16;;;;;;;7.72;2.20;;;;;;;-144.47;45.27;53187.78;5034164;28;20663;-68
2022/05/24 11:13:53;;;;;;;9.27;2.15;;;;;;;-144.47;45.98;53217.59;5034415;28;20021;-65
2022/05/24 11:16:22;;;;;;;7.90;2.95;;;;;;;-144.47;46.92;53187.78;5034154;28;20048;-67
2022/05/24 11:18:48;;;;;;;21.40;3.90;;;;;;;-144.47;47.71;53217.59;5029101;28;20167;-68
2022/05/24 11:21:30;;;;;;;9.77;2.92;;;;;;;-144.47;46.51;53217.59;5025555;28;20394;-68
2022/05/24 11:24:04;;;;;;;13.52;1.98;;;;;;;-144.47;46.68;53219.56;5022266;28;20026;-67
2022/05/24 11:26:34;;;;;;;3.28;1.10;;;;;;;-144.47;48.37;53225.53;5034008;28;20018;-66
2022/05/24 11:29:28;;;;;;;4.13;1.23;;;;;;;-144.47;49.16;53209.66;5033864;28;20029;-67
2022/05/24 11:32:01;;;;;;;3.45;1.05;;;;;;;-144.47;49.16;53219.56;5033034;28;20017;-69
2022/05/24 11:34:30;;;;;;;2.78;1.25;;;;;;;-144.47;48.96;53221.56;5033567;28;20041;-68
2022/05/24 11:37:20;;;;;;;2.28;0.90;;;;;;;-144.47;48.45;53213.63;5034126;28;20025;-67
2022/05/24 11:39:46;;;;;;;7.50;1.23;;;;;;;-144.47;48.75;53241.44;5031593;28;20103;-68
2022/05/24 11:42:40;;;;;;;3.72;1.20;;;;;;;-144.47;46.92;53221.56;5033867;28;20112;-69
2022/05/24 11:45:28;;;;;;;7.40;1.00;;;;;;;-144.47;47.20;53245.41;5030436;28;20510;-70
2022/05/24 11:47:59;;;;;;;3.92;0.90;;;;;;;-144.47;46.71;53225.53;5033406;28;20460;-66
2022/05/24 11:50:30;;;;;;;1.83;0.95;;;;;;;-144.47;45.54;53233.47;5015598;28;20022;-67
2022/05/24 11:53:04;;;;;;;2.03;0.90;;;;;;;-144.47;44.83;53241.44;5031792;28;20033;-68
2022/05/24 11:55:49;;;;;;;0.60;0.60;;;;;;;-144.47;45.84;53221.56;5028601;28;20142;-70
2022/05/24 11:58:20;;;;;;;0.95;0.52;;;;;;;-144.47;45.29;53219.56;5030107;28;20025;-68
2022/05/24 12:01:10;;;;;;;0.40;0.40;;;;;;;-144.47;45.18;53237.44;5030586;28;20178;-70
2022/05/24 12:09:25;;;;;;;2.22;0.60;;;;;;;-144.47;46.05;53265.25;5015943;28;20582;-66
2022/05/24 12:12:20;;;;;;;0.82;0.63;;;;;;;-144.47;44.79;53237.44;5029771;28;20112;-66
2022/05/24 12:14:46;;;;;;;0.40;0.40;;;;;;;-144.47;44.56;53205.66;5030421;28;20051;-66
2022/05/24 12:17:13;;;;;;;0.93;0.57;;;;;;;-144.47;44.75;53225.53;5029371;28;20025;-69
2022/05/24 12:19:40;;;;;;;3.13;0.77;;;;;;;-144.47;45.25;53207.66;5030028;28;20086;-71
2022/05/24 12:22:08;;;;;;;5.10;0.82;;;;;;;-144.47;46.12;53211.63;5029683;28;20416;-70